sensor_id;sensor_type;location;lat;lon;timestamp;P1;durP1;ratioP1;P2;durP2;ratioP2
65373;SDS011;52070;53.760;9.678;2024-02-21T00:00:49;40.55;;;14.90;;
65373;SDS011;52070;53.760;9.678;2024-02-21T00:03:16;33.75;;;15.07;;
65373;SDS011;52070;53.760;9.678;2024-02-21T00:05:44;48.58;;;14.20;;
65373;SDS011;52070;53.760;9.678;2024-02-21T00:08:11;32.65;;;13.80;;
65373;SDS011;52070;53.760;9.678;2024-02-21T00:10:38;35.70;;;13.75;;
65373;SDS011;52070;53.760;9.678;2024-02-21T00:13:05;46.33;;;13.68;;
65373;SDS011;52070;53.760;9.678;2024-02-21T00:15:32;36.63;;;14.07;;
65373;SDS011;52070;53.760;9.678;2024-02-21T00:17:59;37.63;;;14.70;;
65373;SDS011;52070;53.760;9.678;2024-02-21T00:20:26;48.90;;;15.27;;
65373;SDS011;52070;53.760;9.678;2024-02-21T00:22:54;37.78;;;14.52;;
65373;SDS011;52070;53.760;9.678;2024-02-21T00:25:21;49.55;;;14.93;;
65373;SDS011;52070;53.760;9.678;2024-02-21T00:27:48;38.03;;;14.93;;
65373;SDS011;52070;53.760;9.678;2024-02-21T00:30:15;40.10;;;15.38;;
65373;SDS011;52070;53.760;9.678;2024-02-21T00:32:42;37.17;;;13.68;;
65373;SDS011;52070;53.760;9.678;2024-02-21T00:35:09;42.30;;;14.27;;
65373;SDS011;52070;53.760;9.678;2024-02-21T00:37:36;38.63;;;15.23;;
65373;SDS011;52070;53.760;9.678;2024-02-21T00:40:05;30.77;;;13.68;;
65373;SDS011;52070;53.760;9.678;2024-02-21T00:42:33;44.33;;;15.25;;
65373;SDS011;52070;53.760;9.678;2024-02-21T00:45:00;42.38;;;15.15;;
65373;SDS011;52070;53.760;9.678;2024-02-21T00:47:27;34.80;;;14.25;;
65373;SDS011;52070;53.760;9.678;2024-02-21T00:49:54;41.70;;;13.68;;
65373;SDS011;52070;53.760;9.678;2024-02-21T00:52:21;36.58;;;14.25;;
65373;SDS011;52070;53.760;9.678;2024-02-21T00:54:48;28.90;;;13.98;;
65373;SDS011;52070;53.760;9.678;2024-02-21T00:57:17;44.75;;;14.10;;
65373;SDS011;52070;53.760;9.678;2024-02-21T00:59:43;44.67;;;15.57;;
65373;SDS011;52070;53.760;9.678;2024-02-21T01:02:10;40.92;;;14.32;;
65373;SDS011;52070;53.760;9.678;2024-02-21T01:04:37;39.00;;;14.43;;
65373;SDS011;52070;53.760;9.678;2024-02-21T01:07:04;34.80;;;13.50;;
65373;SDS011;52070;53.760;9.678;2024-02-21T01:09:31;38.03;;;14.10;;
65373;SDS011;52070;53.760;9.678;2024-02-21T01:11:58;39.33;;;15.32;;
65373;SDS011;52070;53.760;9.678;2024-02-21T01:14:26;31.58;;;13.15;;
65373;SDS011;52070;53.760;9.678;2024-02-21T01:16:53;36.88;;;14.38;;
65373;SDS011;52070;53.760;9.678;2024-02-21T01:19:20;39.55;;;13.93;;
65373;SDS011;52070;53.760;9.678;2024-02-21T01:21:47;30.92;;;13.18;;
65373;SDS011;52070;53.760;9.678;2024-02-21T01:24:14;29.45;;;14.00;;
65373;SDS011;52070;53.760;9.678;2024-02-21T01:26:41;33.72;;;14.15;;
65373;SDS011;52070;53.760;9.678;2024-02-21T01:29:08;38.38;;;13.68;;
65373;SDS011;52070;53.760;9.678;2024-02-21T01:31:36;45.17;;;13.90;;
65373;SDS011;52070;53.760;9.678;2024-02-21T01:34:03;47.60;;;14.80;;
65373;SDS011;52070;53.760;9.678;2024-02-21T01:36:30;37.40;;;15.45;;
65373;SDS011;52070;53.760;9.678;2024-02-21T01:38:58;42.50;;;15.30;;
65373;SDS011;52070;53.760;9.678;2024-02-21T01:41:25;33.78;;;14.32;;
65373;SDS011;52070;53.760;9.678;2024-02-21T01:43:52;35.83;;;14.50;;
65373;SDS011;52070;53.760;9.678;2024-02-21T01:46:19;43.05;;;15.90;;
65373;SDS011;52070;53.760;9.678;2024-02-21T01:48:47;34.22;;;14.40;;
65373;SDS011;52070;53.760;9.678;2024-02-21T01:51:14;45.60;;;15.45;;
65373;SDS011;52070;53.760;9.678;2024-02-21T01:53:42;31.20;;;14.48;;
65373;SDS011;52070;53.760;9.678;2024-02-21T01:56:10;45.80;;;15.45;;
65373;SDS011;52070;53.760;9.678;2024-02-21T01:58:37;36.78;;;14.38;;
65373;SDS011;52070;53.760;9.678;2024-02-21T02:01:07;42.03;;;14.63;;
65373;SDS011;52070;53.760;9.678;2024-02-21T02:03:33;37.30;;;15.55;;
65373;SDS011;52070;53.760;9.678;2024-02-21T02:06:04;42.92;;;15.15;;
65373;SDS011;52070;53.760;9.678;2024-02-21T02:08:31;43.22;;;14.60;;
65373;SDS011;52070;53.760;9.678;2024-02-21T02:10:59;33.75;;;15.00;;
65373;SDS011;52070;53.760;9.678;2024-02-21T02:13:26;41.05;;;14.93;;
65373;SDS011;52070;53.760;9.678;2024-02-21T02:15:53;46.20;;;15.43;;
65373;SDS011;52070;53.760;9.678;2024-02-21T02:18:20;41.13;;;14.20;;
65373;SDS011;52070;53.760;9.678;2024-02-21T02:20:47;41.22;;;14.38;;
65373;SDS011;52070;53.760;9.678;2024-02-21T02:23:19;38.17;;;14.45;;
65373;SDS011;52070;53.760;9.678;2024-02-21T02:25:48;38.47;;;15.13;;
65373;SDS011;52070;53.760;9.678;2024-02-21T02:28:17;49.08;;;14.68;;
65373;SDS011;52070;53.760;9.678;2024-02-21T02:30:44;43.80;;;14.68;;
65373;SDS011;52070;53.760;9.678;2024-02-21T02:33:11;41.03;;;16.27;;
65373;SDS011;52070;53.760;9.678;2024-02-21T02:35:38;37.70;;;14.50;;
65373;SDS011;52070;53.760;9.678;2024-02-21T02:38:05;37.70;;;14.80;;
65373;SDS011;52070;53.760;9.678;2024-02-21T02:40:34;35.28;;;14.57;;
65373;SDS011;52070;53.760;9.678;2024-02-21T02:43:01;39.33;;;15.07;;
65373;SDS011;52070;53.760;9.678;2024-02-21T02:45:28;40.53;;;15.07;;
65373;SDS011;52070;53.760;9.678;2024-02-21T02:47:57;40.92;;;14.40;;
65373;SDS011;52070;53.760;9.678;2024-02-21T02:50:24;39.50;;;15.45;;
65373;SDS011;52070;53.760;9.678;2024-02-21T02:52:51;48.75;;;15.25;;
65373;SDS011;52070;53.760;9.678;2024-02-21T02:55:19;43.08;;;16.33;;
65373;SDS011;52070;53.760;9.678;2024-02-21T02:57:47;32.30;;;15.32;;
65373;SDS011;52070;53.760;9.678;2024-02-21T03:00:14;39.40;;;15.77;;
65373;SDS011;52070;53.760;9.678;2024-02-21T03:02:42;45.58;;;16.52;;
65373;SDS011;52070;53.760;9.678;2024-02-21T03:05:13;53.25;;;16.20;;
65373;SDS011;52070;53.760;9.678;2024-02-21T03:10:08;40.60;;;15.23;;
65373;SDS011;52070;53.760;9.678;2024-02-21T03:12:35;41.15;;;15.45;;
65373;SDS011;52070;53.760;9.678;2024-02-21T03:15:04;36.42;;;15.23;;
65373;SDS011;52070;53.760;9.678;2024-02-21T03:17:32;36.70;;;15.80;;
65373;SDS011;52070;53.760;9.678;2024-02-21T03:19:59;33.05;;;14.70;;
65373;SDS011;52070;53.760;9.678;2024-02-21T03:22:30;30.80;;;16.25;;
65373;SDS011;52070;53.760;9.678;2024-02-21T03:24:57;42.67;;;15.00;;
65373;SDS011;52070;53.760;9.678;2024-02-21T03:27:24;40.05;;;16.45;;
65373;SDS011;52070;53.760;9.678;2024-02-21T03:29:51;40.47;;;15.43;;
65373;SDS011;52070;53.760;9.678;2024-02-21T03:32:19;38.45;;;15.98;;
65373;SDS011;52070;53.760;9.678;2024-02-21T03:34:46;47.65;;;14.63;;
65373;SDS011;52070;53.760;9.678;2024-02-21T03:37:13;37.15;;;14.65;;
65373;SDS011;52070;53.760;9.678;2024-02-21T03:39:40;39.80;;;15.05;;
65373;SDS011;52070;53.760;9.678;2024-02-21T03:42:07;43.25;;;15.75;;
65373;SDS011;52070;53.760;9.678;2024-02-21T03:44:34;41.75;;;15.20;;
65373;SDS011;52070;53.760;9.678;2024-02-21T03:47:01;41.15;;;15.07;;
65373;SDS011;52070;53.760;9.678;2024-02-21T03:49:29;34.15;;;15.15;;
65373;SDS011;52070;53.760;9.678;2024-02-21T03:51:56;33.30;;;14.38;;
65373;SDS011;52070;53.760;9.678;2024-02-21T03:54:24;37.83;;;14.98;;
65373;SDS011;52070;53.760;9.678;2024-02-21T03:56:51;32.47;;;14.43;;
65373;SDS011;52070;53.760;9.678;2024-02-21T03:59:18;31.48;;;13.27;;
65373;SDS011;52070;53.760;9.678;2024-02-21T04:01:45;32.83;;;14.20;;
65373;SDS011;52070;53.760;9.678;2024-02-21T04:04:11;32.58;;;14.25;;
65373;SDS011;52070;53.760;9.678;2024-02-21T04:06:47;40.70;;;13.95;;
65373;SDS011;52070;53.760;9.678;2024-02-21T04:09:14;35.70;;;14.10;;
65373;SDS011;52070;53.760;9.678;2024-02-21T04:11:41;33.00;;;14.57;;
65373;SDS011;52070;53.760;9.678;2024-02-21T04:14:08;26.83;;;12.68;;
65373;SDS011;52070;53.760;9.678;2024-02-21T04:16:36;28.20;;;13.20;;
65373;SDS011;52070;53.760;9.678;2024-02-21T04:19:04;29.58;;;13.35;;
65373;SDS011;52070;53.760;9.678;2024-02-21T04:21:31;29.15;;;12.32;;
65373;SDS011;52070;53.760;9.678;2024-02-21T04:23:59;32.30;;;13.57;;
65373;SDS011;52070;53.760;9.678;2024-02-21T04:26:27;26.45;;;12.80;;
65373;SDS011;52070;53.760;9.678;2024-02-21T04:28:54;37.33;;;13.82;;
65373;SDS011;52070;53.760;9.678;2024-02-21T04:31:21;25.83;;;11.85;;
65373;SDS011;52070;53.760;9.678;2024-02-21T04:33:48;21.52;;;11.77;;
65373;SDS011;52070;53.760;9.678;2024-02-21T04:36:15;28.77;;;11.65;;
65373;SDS011;52070;53.760;9.678;2024-02-21T04:38:42;21.42;;;10.98;;
65373;SDS011;52070;53.760;9.678;2024-02-21T04:41:10;23.58;;;11.88;;
65373;SDS011;52070;53.760;9.678;2024-02-21T04:43:37;26.17;;;10.98;;
65373;SDS011;52070;53.760;9.678;2024-02-21T04:46:04;23.25;;;11.13;;
65373;SDS011;52070;53.760;9.678;2024-02-21T04:48:31;28.48;;;10.73;;
65373;SDS011;52070;53.760;9.678;2024-02-21T04:50:59;21.02;;;10.63;;
65373;SDS011;52070;53.760;9.678;2024-02-21T04:53:26;20.05;;;9.55;;
65373;SDS011;52070;53.760;9.678;2024-02-21T04:55:53;21.55;;;9.95;;
65373;SDS011;52070;53.760;9.678;2024-02-21T04:58:21;21.75;;;9.20;;
65373;SDS011;52070;53.760;9.678;2024-02-21T05:00:48;20.75;;;9.18;;
65373;SDS011;52070;53.760;9.678;2024-02-21T05:03:15;18.38;;;9.07;;
65373;SDS011;52070;53.760;9.678;2024-02-21T05:05:42;20.67;;;9.43;;
65373;SDS011;52070;53.760;9.678;2024-02-21T05:08:09;22.73;;;9.35;;
65373;SDS011;52070;53.760;9.678;2024-02-21T05:10:37;16.85;;;8.60;;
65373;SDS011;52070;53.760;9.678;2024-02-21T05:13:04;24.50;;;9.00;;
65373;SDS011;52070;53.760;9.678;2024-02-21T05:15:32;15.93;;;7.93;;
65373;SDS011;52070;53.760;9.678;2024-02-21T05:17:59;20.60;;;8.60;;
65373;SDS011;52070;53.760;9.678;2024-02-21T05:20:26;17.85;;;8.15;;
65373;SDS011;52070;53.760;9.678;2024-02-21T05:22:53;14.60;;;7.93;;
65373;SDS011;52070;53.760;9.678;2024-02-21T05:25:20;12.25;;;7.65;;
65373;SDS011;52070;53.760;9.678;2024-02-21T05:27:47;18.55;;;8.02;;
65373;SDS011;52070;53.760;9.678;2024-02-21T05:30:14;14.40;;;7.13;;
65373;SDS011;52070;53.760;9.678;2024-02-21T05:32:42;12.85;;;7.40;;
65373;SDS011;52070;53.760;9.678;2024-02-21T05:35:09;13.52;;;7.47;;
65373;SDS011;52070;53.760;9.678;2024-02-21T05:37:36;12.57;;;6.57;;
65373;SDS011;52070;53.760;9.678;2024-02-21T05:40:04;12.88;;;6.53;;
65373;SDS011;52070;53.760;9.678;2024-02-21T05:42:32;14.52;;;7.40;;
65373;SDS011;52070;53.760;9.678;2024-02-21T05:44:59;11.70;;;5.75;;
65373;SDS011;52070;53.760;9.678;2024-02-21T05:47:26;15.25;;;5.55;;
65373;SDS011;52070;53.760;9.678;2024-02-21T05:49:54;10.25;;;5.32;;
65373;SDS011;52070;53.760;9.678;2024-02-21T05:52:21;7.28;;;4.75;;
65373;SDS011;52070;53.760;9.678;2024-02-21T05:54:48;8.75;;;4.80;;
65373;SDS011;52070;53.760;9.678;2024-02-21T05:57:17;10.32;;;4.22;;
65373;SDS011;52070;53.760;9.678;2024-02-21T05:59:44;7.95;;;3.72;;
65373;SDS011;52070;53.760;9.678;2024-02-21T06:02:11;9.23;;;3.63;;
65373;SDS011;52070;53.760;9.678;2024-02-21T06:04:38;7.32;;;3.88;;
65373;SDS011;52070;53.760;9.678;2024-02-21T06:07:07;9.02;;;3.88;;
65373;SDS011;52070;53.760;9.678;2024-02-21T06:09:34;8.73;;;4.28;;
65373;SDS011;52070;53.760;9.678;2024-02-21T06:12:01;8.73;;;4.85;;
65373;SDS011;52070;53.760;9.678;2024-02-21T06:14:28;6.78;;;4.63;;
65373;SDS011;52070;53.760;9.678;2024-02-21T06:16:55;6.63;;;4.72;;
65373;SDS011;52070;53.760;9.678;2024-02-21T06:19:22;12.13;;;5.88;;
65373;SDS011;52070;53.760;9.678;2024-02-21T06:21:49;8.52;;;5.25;;
65373;SDS011;52070;53.760;9.678;2024-02-21T06:24:17;12.55;;;5.05;;
65373;SDS011;52070;53.760;9.678;2024-02-21T06:26:44;7.50;;;4.63;;
65373;SDS011;52070;53.760;9.678;2024-02-21T06:29:11;12.80;;;5.07;;
65373;SDS011;52070;53.760;9.678;2024-02-21T06:31:39;10.57;;;5.30;;
65373;SDS011;52070;53.760;9.678;2024-02-21T06:34:07;11.15;;;4.85;;
65373;SDS011;52070;53.760;9.678;2024-02-21T06:36:33;11.18;;;5.05;;
65373;SDS011;52070;53.760;9.678;2024-02-21T06:39:00;7.63;;;4.60;;
65373;SDS011;52070;53.760;9.678;2024-02-21T06:41:31;12.00;;;4.93;;
65373;SDS011;52070;53.760;9.678;2024-02-21T06:43:59;10.82;;;4.93;;
65373;SDS011;52070;53.760;9.678;2024-02-21T06:46:27;10.82;;;4.47;;
65373;SDS011;52070;53.760;9.678;2024-02-21T06:48:55;8.38;;;4.47;;
65373;SDS011;52070;53.760;9.678;2024-02-21T06:51:22;13.15;;;4.63;;
65373;SDS011;52070;53.760;9.678;2024-02-21T06:54:08;7.00;;;4.00;;
65373;SDS011;52070;53.760;9.678;2024-02-21T06:56:57;13.88;;;4.72;;
65373;SDS011;52070;53.760;9.678;2024-02-21T06:59:44;10.27;;;4.90;;
65373;SDS011;52070;53.760;9.678;2024-02-21T07:02:32;10.68;;;3.80;;
65373;SDS011;52070;53.760;9.678;2024-02-21T07:05:19;16.65;;;3.97;;
65373;SDS011;52070;53.760;9.678;2024-02-21T07:08:06;13.65;;;4.07;;
65373;SDS011;52070;53.760;9.678;2024-02-21T07:10:53;15.20;;;3.78;;
65373;SDS011;52070;53.760;9.678;2024-02-21T07:13:42;14.65;;;4.10;;
65373;SDS011;52070;53.760;9.678;2024-02-21T07:16:29;19.55;;;4.25;;
65373;SDS011;52070;53.760;9.678;2024-02-21T07:19:18;19.38;;;4.05;;
65373;SDS011;52070;53.760;9.678;2024-02-21T07:22:05;19.48;;;4.40;;
65373;SDS011;52070;53.760;9.678;2024-02-21T07:24:52;18.83;;;4.60;;
65373;SDS011;52070;53.760;9.678;2024-02-21T07:27:40;19.42;;;3.95;;
65373;SDS011;52070;53.760;9.678;2024-02-21T07:30:29;19.15;;;4.35;;
65373;SDS011;52070;53.760;9.678;2024-02-21T07:33:16;26.17;;;3.33;;
65373;SDS011;52070;53.760;9.678;2024-02-21T07:36:05;14.68;;;3.03;;
65373;SDS011;52070;53.760;9.678;2024-02-21T07:38:55;20.58;;;3.88;;
65373;SDS011;52070;53.760;9.678;2024-02-21T07:41:42;21.40;;;4.00;;
65373;SDS011;52070;53.760;9.678;2024-02-21T07:44:32;28.52;;;3.60;;
65373;SDS011;52070;53.760;9.678;2024-02-21T07:47:21;22.92;;;3.42;;
65373;SDS011;52070;53.760;9.678;2024-02-21T07:50:09;15.10;;;3.78;;
65373;SDS011;52070;53.760;9.678;2024-02-21T07:52:36;30.17;;;3.28;;
65373;SDS011;52070;53.760;9.678;2024-02-21T07:55:03;18.05;;;4.45;;
65373;SDS011;52070;53.760;9.678;2024-02-21T07:57:31;24.42;;;3.58;;
65373;SDS011;52070;53.760;9.678;2024-02-21T07:59:58;28.73;;;3.17;;
65373;SDS011;52070;53.760;9.678;2024-02-21T08:02:26;15.65;;;2.53;;
65373;SDS011;52070;53.760;9.678;2024-02-21T08:04:53;14.98;;;3.65;;
65373;SDS011;52070;53.760;9.678;2024-02-21T08:07:20;21.30;;;3.00;;
65373;SDS011;52070;53.760;9.678;2024-02-21T08:09:47;24.35;;;3.50;;
65373;SDS011;52070;53.760;9.678;2024-02-21T08:12:14;20.83;;;2.90;;
65373;SDS011;52070;53.760;9.678;2024-02-21T08:14:41;27.40;;;3.63;;
65373;SDS011;52070;53.760;9.678;2024-02-21T08:17:11;10.40;;;2.23;;
65373;SDS011;52070;53.760;9.678;2024-02-21T08:19:39;21.95;;;3.47;;
65373;SDS011;52070;53.760;9.678;2024-02-21T08:22:06;16.75;;;2.85;;
65373;SDS011;52070;53.760;9.678;2024-02-21T08:24:33;25.52;;;3.05;;
65373;SDS011;52070;53.760;9.678;2024-02-21T08:27:00;25.83;;;2.53;;
65373;SDS011;52070;53.760;9.678;2024-02-21T08:29:31;26.95;;;3.05;;
65373;SDS011;52070;53.760;9.678;2024-02-21T08:31:58;19.40;;;3.40;;
65373;SDS011;52070;53.760;9.678;2024-02-21T08:34:25;14.00;;;3.10;;
65373;SDS011;52070;53.760;9.678;2024-02-21T08:36:56;30.48;;;3.63;;
65373;SDS011;52070;53.760;9.678;2024-02-21T08:39:22;26.92;;;3.25;;
65373;SDS011;52070;53.760;9.678;2024-02-21T08:41:50;22.27;;;3.08;;
65373;SDS011;52070;53.760;9.678;2024-02-21T08:44:17;20.90;;;3.42;;
65373;SDS011;52070;53.760;9.678;2024-02-21T08:46:44;17.85;;;3.05;;
65373;SDS011;52070;53.760;9.678;2024-02-21T08:49:12;29.02;;;3.30;;
65373;SDS011;52070;53.760;9.678;2024-02-21T08:51:39;28.52;;;3.22;;
65373;SDS011;52070;53.760;9.678;2024-02-21T08:54:08;15.73;;;2.70;;
65373;SDS011;52070;53.760;9.678;2024-02-21T08:56:35;22.23;;;2.85;;
65373;SDS011;52070;53.760;9.678;2024-02-21T08:59:02;32.55;;;3.50;;
65373;SDS011;52070;53.760;9.678;2024-02-21T09:01:29;18.20;;;2.70;;
65373;SDS011;52070;53.760;9.678;2024-02-21T09:03:56;22.92;;;3.08;;
65373;SDS011;52070;53.760;9.678;2024-02-21T09:06:23;23.80;;;3.15;;
65373;SDS011;52070;53.760;9.678;2024-02-21T09:08:50;27.33;;;3.00;;
65373;SDS011;52070;53.760;9.678;2024-02-21T09:11:19;21.35;;;2.88;;
65373;SDS011;52070;53.760;9.678;2024-02-21T09:13:45;21.83;;;2.80;;
65373;SDS011;52070;53.760;9.678;2024-02-21T09:16:12;15.48;;;2.40;;
65373;SDS011;52070;53.760;9.678;2024-02-21T09:18:40;21.20;;;3.45;;
65373;SDS011;52070;53.760;9.678;2024-02-21T09:21:07;20.48;;;3.15;;
65373;SDS011;52070;53.760;9.678;2024-02-21T09:23:34;21.67;;;3.38;;
65373;SDS011;52070;53.760;9.678;2024-02-21T09:26:01;26.45;;;3.50;;
65373;SDS011;52070;53.760;9.678;2024-02-21T09:28:31;23.65;;;3.17;;
65373;SDS011;52070;53.760;9.678;2024-02-21T09:30:59;17.58;;;2.60;;
65373;SDS011;52070;53.760;9.678;2024-02-21T09:33:27;16.95;;;2.90;;
65373;SDS011;52070;53.760;9.678;2024-02-21T09:35:54;24.88;;;3.45;;
65373;SDS011;52070;53.760;9.678;2024-02-21T09:38:21;13.63;;;2.50;;
65373;SDS011;52070;53.760;9.678;2024-02-21T09:40:51;18.90;;;3.00;;
65373;SDS011;52070;53.760;9.678;2024-02-21T09:43:25;15.60;;;3.05;;
65373;SDS011;52070;53.760;9.678;2024-02-21T09:45:54;31.40;;;3.80;;
65373;SDS011;52070;53.760;9.678;2024-02-21T09:48:30;24.77;;;3.08;;
65373;SDS011;52070;53.760;9.678;2024-02-21T09:51:10;14.98;;;2.80;;
65373;SDS011;52070;53.760;9.678;2024-02-21T09:53:38;21.83;;;3.40;;
65373;SDS011;52070;53.760;9.678;2024-02-21T09:56:07;15.90;;;3.47;;
65373;SDS011;52070;53.760;9.678;2024-02-21T09:58:35;14.32;;;3.40;;
65373;SDS011;52070;53.760;9.678;2024-02-21T10:01:04;17.10;;;3.08;;
65373;SDS011;52070;53.760;9.678;2024-02-21T10:03:32;17.02;;;3.88;;
65373;SDS011;52070;53.760;9.678;2024-02-21T10:06:00;17.65;;;4.45;;
65373;SDS011;52070;53.760;9.678;2024-02-21T10:08:28;22.77;;;3.80;;
65373;SDS011;52070;53.760;9.678;2024-02-21T10:10:55;20.55;;;3.65;;
65373;SDS011;52070;53.760;9.678;2024-02-21T10:13:25;15.32;;;3.47;;
65373;SDS011;52070;53.760;9.678;2024-02-21T10:16:03;16.75;;;4.05;;
65373;SDS011;52070;53.760;9.678;2024-02-21T10:18:32;27.15;;;3.63;;
65373;SDS011;52070;53.760;9.678;2024-02-21T10:21:00;12.07;;;3.63;;
65373;SDS011;52070;53.760;9.678;2024-02-21T10:23:28;16.77;;;3.80;;
65373;SDS011;52070;53.760;9.678;2024-02-21T10:26:04;9.55;;;3.47;;
65373;SDS011;52070;53.760;9.678;2024-02-21T10:28:31;17.58;;;4.25;;
65373;SDS011;52070;53.760;9.678;2024-02-21T10:30:58;14.23;;;3.40;;
65373;SDS011;52070;53.760;9.678;2024-02-21T10:33:26;6.60;;;3.65;;
65373;SDS011;52070;53.760;9.678;2024-02-21T10:36:05;12.70;;;3.95;;
65373;SDS011;52070;53.760;9.678;2024-02-21T10:38:33;11.15;;;3.63;;
65373;SDS011;52070;53.760;9.678;2024-02-21T10:41:00;18.55;;;4.30;;
65373;SDS011;52070;53.760;9.678;2024-02-21T10:43:29;11.70;;;3.30;;
65373;SDS011;52070;53.760;9.678;2024-02-21T10:46:01;8.85;;;3.95;;
65373;SDS011;52070;53.760;9.678;2024-02-21T10:51:06;7.75;;;3.55;;
65373;SDS011;52070;53.760;9.678;2024-02-21T10:53:39;10.77;;;3.80;;
65373;SDS011;52070;53.760;9.678;2024-02-21T10:56:15;10.30;;;3.78;;
65373;SDS011;52070;53.760;9.678;2024-02-21T10:58:48;10.30;;;5.20;;
65373;SDS011;52070;53.760;9.678;2024-02-21T11:01:15;8.45;;;3.70;;
65373;SDS011;52070;53.760;9.678;2024-02-21T11:03:45;8.52;;;4.63;;
65373;SDS011;52070;53.760;9.678;2024-02-21T11:06:15;6.18;;;3.47;;
65373;SDS011;52070;53.760;9.678;2024-02-21T11:08:44;8.32;;;4.60;;
65373;SDS011;52070;53.760;9.678;2024-02-21T11:11:12;10.13;;;5.00;;
65373;SDS011;52070;53.760;9.678;2024-02-21T11:13:42;15.07;;;5.97;;
65373;SDS011;52070;53.760;9.678;2024-02-21T11:16:12;16.73;;;6.63;;
65373;SDS011;52070;53.760;9.678;2024-02-21T11:18:49;17.83;;;7.57;;
65373;SDS011;52070;53.760;9.678;2024-02-21T11:21:16;18.20;;;8.52;;
65373;SDS011;52070;53.760;9.678;2024-02-21T11:23:43;17.95;;;7.50;;
65373;SDS011;52070;53.760;9.678;2024-02-21T11:26:21;18.02;;;8.15;;
65373;SDS011;52070;53.760;9.678;2024-02-21T11:28:55;20.55;;;9.23;;
65373;SDS011;52070;53.760;9.678;2024-02-21T11:31:23;18.95;;;8.25;;
65373;SDS011;52070;53.760;9.678;2024-02-21T11:33:53;16.90;;;8.65;;
65373;SDS011;52070;53.760;9.678;2024-02-21T11:36:24;22.40;;;9.82;;
65373;SDS011;52070;53.760;9.678;2024-02-21T11:38:52;21.83;;;9.27;;
65373;SDS011;52070;53.760;9.678;2024-02-21T11:41:19;22.50;;;9.18;;
65373;SDS011;52070;53.760;9.678;2024-02-21T11:43:48;25.75;;;10.52;;
65373;SDS011;52070;53.760;9.678;2024-02-21T11:46:16;25.30;;;10.02;;
65373;SDS011;52070;53.760;9.678;2024-02-21T11:48:44;26.73;;;10.73;;
65373;SDS011;52070;53.760;9.678;2024-02-21T11:51:24;27.02;;;10.32;;
65373;SDS011;52070;53.760;9.678;2024-02-21T11:53:52;24.77;;;10.95;;
65373;SDS011;52070;53.760;9.678;2024-02-21T11:56:19;31.05;;;11.77;;
65373;SDS011;52070;53.760;9.678;2024-02-21T11:58:48;25.83;;;11.43;;
65373;SDS011;52070;53.760;9.678;2024-02-21T12:01:15;26.42;;;10.60;;
65373;SDS011;52070;53.760;9.678;2024-02-21T12:03:42;28.95;;;12.40;;
65373;SDS011;52070;53.760;9.678;2024-02-21T12:06:15;25.35;;;10.70;;
65373;SDS011;52070;53.760;9.678;2024-02-21T12:08:46;22.45;;;10.25;;
65373;SDS011;52070;53.760;9.678;2024-02-21T12:11:17;31.40;;;11.38;;
65373;SDS011;52070;53.760;9.678;2024-02-21T12:13:46;29.30;;;11.65;;
65373;SDS011;52070;53.760;9.678;2024-02-21T12:16:15;26.33;;;11.02;;
65373;SDS011;52070;53.760;9.678;2024-02-21T12:18:42;24.15;;;10.52;;
65373;SDS011;52070;53.760;9.678;2024-02-21T12:21:09;31.00;;;10.60;;
65373;SDS011;52070;53.760;9.678;2024-02-21T12:23:37;23.48;;;9.98;;
65373;SDS011;52070;53.760;9.678;2024-02-21T12:26:06;22.95;;;10.65;;
65373;SDS011;52070;53.760;9.678;2024-02-21T12:28:33;24.58;;;11.18;;
65373;SDS011;52070;53.760;9.678;2024-02-21T12:31:00;25.60;;;10.10;;
65373;SDS011;52070;53.760;9.678;2024-02-21T12:33:29;25.02;;;10.93;;
65373;SDS011;52070;53.760;9.678;2024-02-21T12:35:58;27.42;;;10.85;;
65373;SDS011;52070;53.760;9.678;2024-02-21T12:38:25;27.05;;;11.45;;
65373;SDS011;52070;53.760;9.678;2024-02-21T12:40:54;26.75;;;11.05;;
65373;SDS011;52070;53.760;9.678;2024-02-21T12:43:24;23.20;;;10.90;;
65373;SDS011;52070;53.760;9.678;2024-02-21T12:45:51;28.60;;;10.73;;
65373;SDS011;52070;53.760;9.678;2024-02-21T12:48:18;30.98;;;11.80;;
65373;SDS011;52070;53.760;9.678;2024-02-21T12:50:48;30.10;;;11.05;;
65373;SDS011;52070;53.760;9.678;2024-02-21T12:53:16;24.67;;;11.68;;
65373;SDS011;52070;53.760;9.678;2024-02-21T12:55:44;25.38;;;11.90;;
65373;SDS011;52070;53.760;9.678;2024-02-21T12:58:11;25.63;;;11.70;;
65373;SDS011;52070;53.760;9.678;2024-02-21T13:00:40;30.10;;;13.90;;
65373;SDS011;52070;53.760;9.678;2024-02-21T13:03:07;27.30;;;13.07;;
65373;SDS011;52070;53.760;9.678;2024-02-21T13:05:36;31.52;;;12.55;;
65373;SDS011;52070;53.760;9.678;2024-02-21T13:08:04;26.90;;;13.02;;
65373;SDS011;52070;53.760;9.678;2024-02-21T13:10:31;31.63;;;13.45;;
65373;SDS011;52070;53.760;9.678;2024-02-21T13:12:59;35.95;;;14.00;;
65373;SDS011;52070;53.760;9.678;2024-02-21T13:15:26;38.65;;;14.20;;
65373;SDS011;52070;53.760;9.678;2024-02-21T13:17:55;33.38;;;14.75;;
65373;SDS011;52070;53.760;9.678;2024-02-21T13:20:22;32.40;;;14.90;;
65373;SDS011;52070;53.760;9.678;2024-02-21T13:22:49;30.00;;;15.45;;
65373;SDS011;52070;53.760;9.678;2024-02-21T13:25:16;35.63;;;14.40;;
65373;SDS011;52070;53.760;9.678;2024-02-21T13:27:46;31.60;;;14.47;;
65373;SDS011;52070;53.760;9.678;2024-02-21T13:30:13;37.60;;;15.05;;
65373;SDS011;52070;53.760;9.678;2024-02-21T13:32:41;32.38;;;13.95;;
65373;SDS011;52070;53.760;9.678;2024-02-21T13:35:10;29.77;;;13.27;;
65373;SDS011;52070;53.760;9.678;2024-02-21T13:37:37;30.75;;;13.52;;
65373;SDS011;52070;53.760;9.678;2024-02-21T13:40:05;35.58;;;14.30;;
65373;SDS011;52070;53.760;9.678;2024-02-21T13:42:34;25.17;;;12.73;;
65373;SDS011;52070;53.760;9.678;2024-02-21T13:45:01;33.55;;;13.73;;
65373;SDS011;52070;53.760;9.678;2024-02-21T13:47:29;29.67;;;12.82;;
65373;SDS011;52070;53.760;9.678;2024-02-21T13:49:56;26.50;;;12.80;;
65373;SDS011;52070;53.760;9.678;2024-02-21T13:52:24;29.10;;;13.02;;
65373;SDS011;52070;53.760;9.678;2024-02-21T13:54:51;33.15;;;12.88;;
65373;SDS011;52070;53.760;9.678;2024-02-21T13:57:18;26.70;;;13.70;;
65373;SDS011;52070;53.760;9.678;2024-02-21T13:59:45;26.65;;;12.50;;
65373;SDS011;52070;53.760;9.678;2024-02-21T14:02:12;34.22;;;11.95;;
65373;SDS011;52070;53.760;9.678;2024-02-21T14:04:40;22.58;;;11.25;;
65373;SDS011;52070;53.760;9.678;2024-02-21T14:07:07;24.42;;;12.80;;
65373;SDS011;52070;53.760;9.678;2024-02-21T14:09:36;26.08;;;10.77;;
65373;SDS011;52070;53.760;9.678;2024-02-21T14:12:03;24.95;;;11.55;;
65373;SDS011;52070;53.760;9.678;2024-02-21T14:14:33;20.38;;;10.45;;
65373;SDS011;52070;53.760;9.678;2024-02-21T14:17:01;22.77;;;10.93;;
65373;SDS011;52070;53.760;9.678;2024-02-21T14:19:29;21.05;;;9.63;;
65373;SDS011;52070;53.760;9.678;2024-02-21T14:21:56;31.42;;;11.43;;
65373;SDS011;52070;53.760;9.678;2024-02-21T14:24:23;26.88;;;9.85;;
65373;SDS011;52070;53.760;9.678;2024-02-21T14:26:51;36.40;;;10.13;;
65373;SDS011;52070;53.760;9.678;2024-02-21T14:29:18;23.00;;;9.80;;
65373;SDS011;52070;53.760;9.678;2024-02-21T14:31:46;20.67;;;10.18;;
65373;SDS011;52070;53.760;9.678;2024-02-21T14:34:13;18.80;;;9.50;;
65373;SDS011;52070;53.760;9.678;2024-02-21T14:36:39;26.00;;;10.30;;
65373;SDS011;52070;53.760;9.678;2024-02-21T14:39:07;23.55;;;9.32;;
65373;SDS011;52070;53.760;9.678;2024-02-21T14:41:34;21.10;;;9.70;;
65373;SDS011;52070;53.760;9.678;2024-02-21T14:44:03;21.05;;;9.15;;